Time;durP1;ratioP1;P1;durP2;ratioP2;P2;SDS_P1;SDS_P2;PMS_P1;PMS_P2;Temp;Humidity;BMP_temperature;BMP_pressure;BME280_temperature;BME280_humidity;BME280_pressure;Samples;Min_cycle;Max_cycle;Signal;HPM_P1;HPM_P2
2023/07/27 00:01:48;;;;;;;4.00;3.60;;;17.30;99.90;;;;;;5025592;28;20198;-82
2023/07/27 00:04:16;;;;;;;4.82;4.13;;;17.30;99.90;;;;;;5027954;28;20233;-78
2023/07/27 00:06:43;;;;;;;4.70;3.78;;;17.30;99.90;;;;;;5042639;28;20194;-82
2023/07/27 00:09:27;;;;;;;5.40;3.67;;;17.30;99.90;;;;;;5047219;28;20202;-79
2023/07/27 00:11:56;;;;;;;4.10;3.70;;;17.30;99.90;;;;;;5027007;28;20205;-79
2023/07/27 00:14:23;;;;;;;5.35;3.78;;;17.30;99.90;;;;;;5031769;28;20198;-79
2023/07/27 00:16:51;;;;;;;5.35;3.92;;;17.30;99.90;;;;;;5057431;28;23090;-79
2023/07/27 00:19:18;;;;;;;6.28;3.97;;;17.30;99.90;;;;;;5016400;28;20203;-80
2023/07/27 00:21:46;;;;;;;4.85;3.67;;;17.30;99.90;;;;;;5018279;28;20257;-84
2023/07/27 00:24:13;;;;;;;5.30;3.72;;;17.30;99.90;;;;;;5031540;28;20194;-78
2023/07/27 00:26:42;;;;;;;4.05;3.60;;;17.30;99.90;;;;;;5062872;28;20241;-78
2023/07/27 00:29:09;;;;;;;4.85;3.88;;;17.30;99.90;;;;;;5029067;28;20214;-79
2023/07/27 00:31:37;;;;;;;5.78;3.72;;;17.30;99.90;;;;;;5020234;28;20542;-78
2023/07/27 00:34:05;;;;;;;4.40;3.70;;;17.30;99.90;;;;;;5032900;28;20198;-78
2023/07/27 00:36:32;;;;;;;3.95;3.40;;;17.30;99.90;;;;;;5031244;28;20198;-78
2023/07/27 00:39:00;;;;;;;4.63;3.40;;;17.30;99.90;;;;;;5025089;28;20589;-79
2023/07/27 00:41:28;;;;;;;5.93;3.50;;;17.30;99.90;;;;;;5022549;28;20206;-78
2023/07/27 00:43:56;;;;;;;4.43;3.05;;;17.30;99.90;;;;;;5031484;28;20210;-78
2023/07/27 00:46:24;;;;;;;5.97;3.45;;;17.30;99.90;;;;;;5033301;28;20198;-79
2023/07/27 00:48:52;;;;;;;4.20;3.13;;;17.30;99.90;;;;;;5028141;28;20218;-79
2023/07/27 00:51:36;;;;;;;4.93;3.40;;;17.30;99.90;;;;;;5030840;28;20198;-79
2023/07/27 00:54:05;;;;;;;5.72;3.40;;;17.30;99.90;;;;;;5053980;28;20222;-79
2023/07/27 00:56:33;;;;;;;4.40;3.53;;;17.30;99.90;;;;;;5035289;28;20198;-78
2023/07/27 00:59:04;;;;;;;4.13;2.85;;;17.30;99.90;;;;;;5025422;28;20209;-78
2023/07/27 01:01:33;;;;;;;5.30;3.45;;;17.40;99.90;;;;;;5026994;28;20190;-78
2023/07/27 01:04:01;;;;;;;6.18;3.40;;;17.30;99.90;;;;;;5029673;28;20198;-81
2023/07/27 01:06:29;;;;;;;3.65;3.20;;;17.30;99.90;;;;;;5031238;28;20202;-80
2023/07/27 01:08:57;;;;;;;4.03;3.47;;;17.30;99.90;;;;;;5027061;28;20229;-79
2023/07/27 01:11:30;;;;;;;4.63;3.53;;;17.30;99.90;;;;;;5060957;28;20203;-79
2023/07/27 01:14:09;;;;;;;5.03;3.38;;;17.40;99.90;;;;;;5052689;28;20186;-78
2023/07/27 01:16:43;;;;;;;3.55;3.03;;;17.40;99.90;;;;;;5046910;28;20559;-78
2023/07/27 01:19:27;;;;;;;5.30;3.20;;;17.40;99.90;;;;;;5063228;28;20199;-79
2023/07/27 01:22:07;;;;;;;5.07;3.17;;;17.40;99.90;;;;;;5050964;28;20777;-80
2023/07/27 01:24:55;;;;;;;4.18;2.90;;;17.40;99.90;;;;;;5025958;28;20705;-79
2023/07/27 01:27:39;;;;;;;4.70;2.97;;;17.40;99.90;;;;;;5030411;28;20594;-80
2023/07/27 01:30:40;;;;;;;4.22;3.15;;;17.40;99.90;;;;;;5026522;28;20206;-79
2023/07/27 01:33:12;;;;;;;7.35;3.08;;;17.50;99.90;;;;;;5039428;28;20206;-79
2023/07/27 01:35:47;;;;;;;5.70;3.40;;;17.50;99.90;;;;;;5027715;28;20199;-79
2023/07/27 01:38:15;;;;;;;4.15;2.92;;;17.50;99.90;;;;;;5031398;28;20238;-79
2023/07/27 01:40:45;;;;;;;3.33;3.03;;;17.50;99.90;;;;;;5032037;28;20205;-78
2023/07/27 01:43:14;;;;;;;3.17;2.90;;;17.50;99.90;;;;;;5049515;28;20203;-81
2023/07/27 01:45:42;;;;;;;3.55;2.90;;;17.50;99.90;;;;;;5046760;28;20201;-79
2023/07/27 01:48:12;;;;;;;3.38;2.60;;;17.50;99.90;;;;;;5032626;28;20231;-79
2023/07/27 01:50:41;;;;;;;3.75;3.00;;;17.50;99.90;;;;;;5028083;28;20219;-81
2023/07/27 01:53:12;;;;;;;4.57;2.90;;;17.60;99.90;;;;;;5032143;28;20572;-79
2023/07/27 01:55:41;;;;;;;4.53;2.92;;;17.60;99.90;;;;;;5046789;28;20194;-82
2023/07/27 01:58:09;;;;;;;2.92;2.35;;;17.60;99.90;;;;;;5029313;28;20230;-78
2023/07/27 02:00:37;;;;;;;3.33;2.90;;;17.60;99.90;;;;;;5060791;28;20199;-79
2023/07/27 02:03:05;;;;;;;3.88;2.40;;;17.60;99.90;;;;;;5033597;28;20202;-79
2023/07/27 02:05:35;;;;;;;4.90;2.92;;;17.50;99.90;;;;;;5026759;28;20198;-78
2023/07/27 02:08:03;;;;;;;3.45;2.72;;;17.60;99.90;;;;;;5030652;28;20214;-78
2023/07/27 02:10:31;;;;;;;4.88;2.65;;;17.60;99.90;;;;;;5032658;28;20234;-79
2023/07/27 02:13:05;;;;;;;5.57;2.78;;;17.60;99.90;;;;;;5029973;28;20214;-79
2023/07/27 02:15:37;;;;;;;4.72;2.90;;;17.50;99.90;;;;;;5045792;28;20206;-78
2023/07/27 02:18:11;;;;;;;5.45;3.05;;;17.60;99.90;;;;;;5064310;28;20229;-78
2023/07/27 02:20:41;;;;;;;4.65;3.17;;;17.60;99.90;;;;;;5028112;28;20199;-81
2023/07/27 02:23:10;;;;;;;5.28;2.88;;;17.60;99.90;;;;;;5031319;28;20205;-80
2023/07/27 02:25:37;;;;;;;4.22;2.75;;;17.50;99.90;;;;;;5024308;28;20210;-78
2023/07/27 02:28:05;;;;;;;3.83;2.72;;;17.50;99.90;;;;;;5049746;28;20217;-79
2023/07/27 02:30:32;;;;;;;4.60;2.95;;;17.50;99.90;;;;;;5047050;28;20213;-79
2023/07/27 02:33:00;;;;;;;3.83;2.90;;;17.60;99.90;;;;;;5033354;28;20202;-78
2023/07/27 02:35:27;;;;;;;4.63;2.83;;;17.50;99.90;;;;;;5049854;28;20198;-82
2023/07/27 02:37:57;;;;;;;5.68;3.10;;;17.50;99.90;;;;;;5052267;28;20218;-78
2023/07/27 02:40:27;;;;;;;4.90;2.95;;;17.40;99.90;;;;;;5029798;28;20194;-79
2023/07/27 02:42:55;;;;;;;4.78;3.10;;;17.30;99.90;;;;;;5030763;28;20205;-79
2023/07/27 02:45:24;;;;;;;5.93;3.47;;;17.30;99.90;;;;;;5031849;28;20209;-79
2023/07/27 02:47:52;;;;;;;5.68;3.20;;;17.30;99.90;;;;;;5029544;28;20218;-80
2023/07/27 02:50:19;;;;;;;4.65;3.15;;;17.20;99.90;;;;;;5028889;28;20285;-83
2023/07/27 02:53:06;;;;;;;4.72;3.40;;;17.10;99.90;;;;;;5030709;28;20206;-79
2023/07/27 02:55:34;;;;;;;7.25;3.05;;;17.10;99.90;;;;;;5031877;28;20672;-79
2023/07/27 02:58:04;;;;;;;6.55;3.17;;;17.00;99.90;;;;;;5024331;28;20229;-79
2023/07/27 03:00:34;;;;;;;4.35;3.03;;;16.90;99.90;;;;;;5019278;28;20193;-82
2023/07/27 03:03:06;;;;;;;5.00;3.33;;;16.80;99.90;;;;;;5033244;28;20209;-82
2023/07/27 03:05:33;;;;;;;4.65;3.00;;;16.70;99.90;;;;;;5032262;28;20202;-79
2023/07/27 03:08:01;;;;;;;3.40;3.03;;;16.70;99.90;;;;;;5032487;28;20241;-78
2023/07/27 03:10:38;;;;;;;7.03;3.55;;;16.70;99.90;;;;;;5030015;28;20233;-78
2023/07/27 03:13:05;;;;;;;5.53;3.45;;;16.60;99.90;;;;;;5031673;28;20198;-78
2023/07/27 03:15:33;;;;;;;4.95;3.55;;;16.70;99.90;;;;;;5030465;28;20205;-78
2023/07/27 03:18:00;;;;;;;4.57;3.47;;;16.60;99.90;;;;;;5032246;28;20214;-78
2023/07/27 03:20:28;;;;;;;4.03;3.58;;;16.60;99.90;;;;;;5031584;28;20199;-78
2023/07/27 03:22:55;;;;;;;4.78;3.50;;;16.60;99.90;;;;;;5060706;28;20217;-78
2023/07/27 03:25:22;;;;;;;4.82;3.80;;;16.70;99.90;;;;;;5030876;28;20198;-78
2023/07/27 03:27:51;;;;;;;4.43;3.75;;;16.70;99.90;;;;;;5028340;28;20210;-78
2023/07/27 03:30:19;;;;;;;4.82;3.45;;;16.80;99.90;;;;;;5024038;28;20219;-78
2023/07/27 03:32:46;;;;;;;6.28;4.15;;;16.80;99.90;;;;;;5049981;28;20198;-78
2023/07/27 03:35:14;;;;;;;4.20;3.80;;;16.70;99.90;;;;;;5034504;28;20572;-78
2023/07/27 03:37:41;;;;;;;4.65;3.70;;;16.70;99.90;;;;;;5064314;28;20218;-78
2023/07/27 03:40:10;;;;;;;5.63;3.40;;;16.60;99.90;;;;;;5044081;28;20187;-78
2023/07/27 03:42:37;;;;;;;4.05;3.25;;;16.60;99.90;;;;;;5026381;28;20202;-78
2023/07/27 03:45:08;;;;;;;8.15;4.15;;;16.60;99.90;;;;;;5033830;28;20209;-78
2023/07/27 03:47:36;;;;;;;4.43;4.00;;;16.60;99.90;;;;;;5027750;28;20230;-78
2023/07/27 03:50:04;;;;;;;5.97;3.78;;;16.60;99.90;;;;;;5044891;28;20199;-78
2023/07/27 03:52:31;;;;;;;5.70;3.65;;;16.60;99.90;;;;;;5034064;28;20210;-78
2023/07/27 03:54:59;;;;;;;5.80;3.67;;;16.40;99.90;;;;;;5026266;28;20205;-78
2023/07/27 03:57:27;;;;;;;6.18;3.38;;;16.50;99.90;;;;;;5035335;28;20582;-78
2023/07/27 03:59:55;;;;;;;3.95;3.58;;;16.50;99.90;;;;;;5034089;28;20194;-78
2023/07/27 04:02:25;;;;;;;4.72;3.95;;;16.50;99.90;;;;;;5056164;28;20210;-78
2023/07/27 04:04:53;;;;;;;6.15;3.67;;;16.50;99.90;;;;;;5031727;28;20203;-78
2023/07/27 04:07:21;;;;;;;4.63;4.13;;;16.30;99.90;;;;;;5027104;28;20222;-78
2023/07/27 04:09:49;;;;;;;4.35;3.42;;;16.20;99.90;;;;;;5025480;28;20209;-78
2023/07/27 04:12:16;;;;;;;7.32;3.80;;;16.20;99.90;;;;;;5025909;28;20221;-78
2023/07/27 04:14:44;;;;;;;5.20;4.10;;;16.20;99.90;;;;;;5027795;28;20210;-78
2023/07/27 04:17:11;;;;;;;5.63;3.97;;;16.10;99.90;;;;;;5027047;28;20214;-78
2023/07/27 04:19:40;;;;;;;4.50;3.88;;;16.00;99.90;;;;;;5026223;28;20202;-78
2023/07/27 04:22:07;;;;;;;6.10;4.28;;;16.00;99.90;;;;;;5025996;28;20224;-78
2023/07/27 04:24:35;;;;;;;4.90;4.40;;;16.00;99.90;;;;;;5027083;28;20202;-78
2023/07/27 04:27:02;;;;;;;4.70;3.80;;;15.90;99.90;;;;;;5044206;28;20225;-78
2023/07/27 04:29:30;;;;;;;5.05;4.07;;;15.90;99.90;;;;;;5043557;28;20199;-78
2023/07/27 04:31:57;;;;;;;5.18;4.25;;;15.80;99.90;;;;;;5031372;28;20218;-78
2023/07/27 04:34:43;;;;;;;7.25;4.50;;;15.90;99.90;;;;;;5051887;28;20217;-78
2023/07/27 04:37:10;;;;;;;5.80;4.35;;;15.80;99.90;;;;;;5035419;28;20223;-78
2023/07/27 04:39:38;;;;;;;6.85;4.97;;;15.70;99.90;;;;;;5063331;28;20207;-78
2023/07/27 04:42:06;;;;;;;6.50;4.68;;;15.70;99.90;;;;;;5032064;28;20204;-78
2023/07/27 04:44:33;;;;;;;5.90;4.15;;;15.70;99.90;;;;;;5024404;28;20575;-77
2023/07/27 04:47:01;;;;;;;7.03;5.00;;;15.70;99.90;;;;;;5030019;28;20229;-77
2023/07/27 04:49:28;;;;;;;5.07;4.13;;;15.70;99.90;;;;;;5042089;28;20236;-77
2023/07/27 04:51:57;;;;;;;6.15;5.10;;;15.60;99.90;;;;;;5024462;28;20217;-77
2023/07/27 04:54:24;;;;;;;6.20;4.68;;;15.70;99.90;;;;;;5064955;28;20229;-77
2023/07/27 04:56:52;;;;;;;6.65;4.95;;;15.60;99.90;;;;;;5043880;28;20245;-78
2023/07/27 04:59:19;;;;;;;8.00;5.20;;;15.60;99.90;;;;;;5028580;28;20198;-78
2023/07/27 05:02:20;;;;;;;6.50;4.50;;;15.60;99.90;;;;;;5043395;28;20695;-78
2023/07/27 05:04:49;;;;;;;7.50;5.25;;;15.60;99.90;;;;;;5061410;28;20217;-79
2023/07/27 05:07:19;;;;;;;6.47;4.82;;;15.70;99.90;;;;;;5031137;28;20222;-79
2023/07/27 05:09:46;;;;;;;8.85;5.60;;;15.60;99.90;;;;;;5027689;28;20210;-78
2023/07/27 05:12:15;;;;;;;6.85;4.75;;;15.50;99.90;;;;;;5059628;28;20217;-80
2023/07/27 05:14:48;;;;;;;7.40;5.22;;;15.40;99.90;;;;;;5027621;28;20235;-79
2023/07/27 05:17:16;;;;;;;6.72;5.13;;;15.40;99.90;;;;;;5027386;28;20236;-78
2023/07/27 05:19:43;;;;;;;5.13;4.50;;;15.40;99.90;;;;;;5029228;28;20202;-78
2023/07/27 05:22:11;;;;;;;5.70;4.80;;;15.30;99.90;;;;;;5030255;28;20225;-77
2023/07/27 05:25:08;;;;;;;5.60;4.85;;;15.40;99.90;;;;;;5030179;28;20201;-78
2023/07/27 05:27:35;;;;;;;6.72;5.20;;;15.20;99.90;;;;;;5027311;28;20229;-78
2023/07/27 05:30:03;;;;;;;6.97;5.15;;;15.20;99.90;;;;;;5043521;28;20198;-77
2023/07/27 05:32:41;;;;;;;5.80;4.57;;;15.30;99.90;;;;;;5033146;28;20214;-77
2023/07/27 05:35:38;;;;;;;6.65;4.72;;;15.30;99.90;;;;;;5027802;28;20206;-77
2023/07/27 05:38:05;;;;;;;7.82;5.03;;;15.30;99.90;;;;;;5060274;28;20591;-77
2023/07/27 05:40:37;;;;;;;8.23;5.57;;;15.30;99.90;;;;;;5028158;28;20206;-78
2023/07/27 05:43:05;;;;;;;7.85;5.65;;;15.20;99.90;;;;;;5041759;28;20209;-78
2023/07/27 05:45:59;;;;;;;8.32;5.75;;;15.20;99.90;;;;;;5062579;28;20198;-78
2023/07/27 05:48:26;;;;;;;6.03;4.63;;;15.20;99.90;;;;;;5043187;28;20226;-78
2023/07/27 05:50:54;;;;;;;7.72;5.50;;;15.10;99.90;;;;;;5028095;28;20597;-78
2023/07/27 05:53:21;;;;;;;6.63;5.00;;;15.20;99.90;;;;;;5027932;28;20210;-78
2023/07/27 05:55:50;;;;;;;7.18;4.53;;;15.20;99.90;;;;;;5036257;28;20198;-78
2023/07/27 05:58:18;;;;;;;7.95;4.28;;;15.90;99.90;;;;;;5031985;28;20218;-78
2023/07/27 06:00:45;;;;;;;8.27;4.93;;;16.00;99.90;;;;;;5063877;28;20205;-78
2023/07/27 06:03:18;;;;;;;9.93;5.30;;;16.00;99.90;;;;;;5037787;28;20202;-78
2023/07/27 06:05:46;;;;;;;8.10;4.70;;;15.90;99.90;;;;;;5034099;28;20201;-78
2023/07/27 06:08:13;;;;;;;7.80;4.38;;;16.00;99.90;;;;;;5031266;28;20218;-79
2023/07/27 06:10:41;;;;;;;6.45;3.83;;;16.40;99.90;;;;;;5059612;28;20199;-78
2023/07/27 06:13:10;;;;;;;5.60;3.67;;;16.80;99.90;;;;;;5047769;28;20194;-81
2023/07/27 06:15:38;;;;;;;4.53;3.08;;;16.60;99.90;;;;;;5062892;28;20195;-78
2023/07/27 06:18:05;;;;;;;4.03;3.20;;;16.60;99.90;;;;;;5033951;28;20241;-77
2023/07/27 06:20:33;;;;;;;3.72;2.95;;;16.60;99.90;;;;;;5032745;28;20221;-77
2023/07/27 06:23:00;;;;;;;3.58;2.88;;;16.60;99.90;;;;;;5050362;28;20202;-77
2023/07/27 06:25:28;;;;;;;4.90;3.00;;;16.40;99.90;;;;;;5034393;28;20368;-78
2023/07/27 06:27:55;;;;;;;4.22;2.97;;;16.30;99.90;;;;;;5029624;28;20685;-77
2023/07/27 06:30:24;;;;;;;3.05;2.80;;;16.30;99.90;;;;;;5030133;28;20210;-77
2023/07/27 06:32:52;;;;;;;4.43;2.83;;;16.30;99.90;;;;;;5067923;28;20218;-77
2023/07/27 06:35:35;;;;;;;5.95;3.15;;;16.30;99.90;;;;;;5062670;28;20207;-77
2023/07/27 06:38:03;;;;;;;3.33;2.47;;;16.20;99.90;;;;;;5034696;28;20217;-77
2023/07/27 06:40:30;;;;;;;3.40;2.85;;;16.30;99.90;;;;;;5031047;28;20207;-77
2023/07/27 06:42:58;;;;;;;3.50;2.70;;;16.30;99.90;;;;;;5033123;28;20203;-78
2023/07/27 06:45:26;;;;;;;3.42;2.88;;;16.10;99.90;;;;;;5033548;28;20195;-78
2023/07/27 06:47:54;;;;;;;3.20;2.90;;;15.90;99.90;;;;;;5028541;28;20218;-78
2023/07/27 06:50:21;;;;;;;3.13;2.60;;;15.90;99.90;;;;;;5031564;28;20198;-77
2023/07/27 06:52:49;;;;;;;3.08;2.80;;;15.90;99.90;;;;;;5031449;28;20218;-77
2023/07/27 06:55:17;;;;;;;2.50;2.05;;;15.80;99.90;;;;;;5030084;28;20199;-77
2023/07/27 06:57:44;;;;;;;2.38;2.17;;;15.80;99.90;;;;;;5050283;28;20237;-77
2023/07/27 07:00:13;;;;;;;4.28;2.53;;;15.80;99.90;;;;;;5028327;28;20573;-77
2023/07/27 07:02:42;;;;;;;2.50;2.30;;;15.80;99.90;;;;;;5033286;28;20197;-77
2023/07/27 07:05:10;;;;;;;2.63;2.28;;;15.70;99.90;;;;;;5032738;28;20203;-77
2023/07/27 07:07:38;;;;;;;2.58;2.38;;;15.80;99.90;;;;;;5033146;28;20218;-77
2023/07/27 07:10:07;;;;;;;2.55;2.35;;;15.80;99.90;;;;;;5034060;28;20205;-77
2023/07/27 07:12:34;;;;;;;3.50;2.58;;;15.80;99.90;;;;;;5030819;28;20226;-77
2023/07/27 07:15:03;;;;;;;2.60;2.25;;;15.80;99.90;;;;;;5029116;28;20210;-77
2023/07/27 07:17:30;;;;;;;2.55;2.25;;;15.80;99.90;;;;;;5030043;28;20230;-77
2023/07/27 07:19:59;;;;;;;2.67;2.33;;;15.90;99.90;;;;;;5052790;28;20201;-77
2023/07/27 07:22:26;;;;;;;3.50;1.83;;;15.90;99.90;;;;;;5062252;28;20228;-77
2023/07/27 07:24:54;;;;;;;3.35;2.10;;;15.90;99.90;;;;;;5030025;28;20206;-77
2023/07/27 07:27:21;;;;;;;2.05;1.85;;;15.90;99.90;;;;;;5031284;28;20222;-77
2023/07/27 07:29:49;;;;;;;2.13;1.92;;;15.90;99.90;;;;;;5033010;28;20202;-77
2023/07/27 07:32:16;;;;;;;3.00;2.38;;;15.90;99.90;;;;;;5035375;28;20226;-77
2023/07/27 07:34:43;;;;;;;1.67;1.58;;;16.00;99.90;;;;;;5032740;28;20210;-77
2023/07/27 07:37:12;;;;;;;3.00;2.03;;;16.00;99.90;;;;;;5047191;28;20221;-77
2023/07/27 07:39:41;;;;;;;4.57;2.60;;;15.90;99.90;;;;;;5030595;28;20207;-77
2023/07/27 07:45:58;;;;;;;3.65;2.13;;;16.00;99.90;;;;;;5051745;28;20166;-78
2023/07/27 07:48:26;;;;;;;2.40;2.20;;;16.00;99.90;;;;;;5033764;28;20583;-77
2023/07/27 07:50:53;;;;;;;2.08;1.98;;;15.90;99.90;;;;;;5033060;28;20217;-77
2023/07/27 07:53:22;;;;;;;2.42;2.20;;;16.10;99.90;;;;;;5028151;28;20584;-77
2023/07/27 07:55:50;;;;;;;2.03;1.80;;;16.10;99.90;;;;;;5021071;28;20203;-77
2023/07/27 07:58:17;;;;;;;2.90;2.08;;;16.10;99.90;;;;;;5023278;28;20229;-77
2023/07/27 08:00:44;;;;;;;2.35;2.15;;;16.10;99.90;;;;;;5047563;28;20205;-77
2023/07/27 08:03:18;;;;;;;2.65;2.03;;;16.10;99.90;;;;;;5034282;28;20198;-77
2023/07/27 08:05:46;;;;;;;2.65;1.98;;;16.10;99.90;;;;;;5028975;28;20202;-77
2023/07/27 08:08:13;;;;;;;2.40;2.22;;;16.20;99.90;;;;;;5025268;28;20229;-77
2023/07/27 08:10:42;;;;;;;2.33;2.10;;;16.20;99.90;;;;;;5022742;28;20206;-77
2023/07/27 08:13:09;;;;;;;1.98;1.85;;;16.20;99.90;;;;;;5032094;28;20207;-78
2023/07/27 08:15:54;;;;;;;2.30;2.10;;;16.20;99.90;;;;;;5047982;28;20664;-77
2023/07/27 08:18:21;;;;;;;2.30;2.10;;;16.20;99.90;;;;;;5046457;28;20217;-77
2023/07/27 08:20:58;;;;;;;2.60;2.40;;;16.20;99.90;;;;;;5028572;28;20673;-77
2023/07/27 08:23:25;;;;;;;3.33;2.55;;;16.20;99.90;;;;;;5026928;28;20202;-77
2023/07/27 08:25:54;;;;;;;2.08;1.70;;;16.30;99.90;;;;;;5024387;28;20202;-77
2023/07/27 08:28:21;;;;;;;2.25;2.13;;;16.30;99.90;;;;;;5031717;28;20233;-77
2023/07/27 08:30:49;;;;;;;2.33;2.13;;;16.30;99.90;;;;;;5031455;28;20205;-77
2023/07/27 08:33:17;;;;;;;2.72;2.53;;;16.30;99.90;;;;;;5046510;28;20233;-77
2023/07/27 08:35:44;;;;;;;2.33;2.13;;;16.30;99.90;;;;;;5025616;28;20556;-77
2023/07/27 08:38:12;;;;;;;2.10;2.00;;;16.40;99.90;;;;;;5055064;28;20214;-77
2023/07/27 08:40:39;;;;;;;2.40;2.20;;;16.40;99.90;;;;;;5027824;28;20225;-78
2023/07/27 08:43:09;;;;;;;2.72;2.53;;;16.50;99.90;;;;;;5026321;28;20203;-78
2023/07/27 08:45:37;;;;;;;2.28;2.15;;;16.50;99.90;;;;;;5031090;28;20198;-76
2023/07/27 08:48:06;;;;;;;2.00;1.90;;;16.50;99.90;;;;;;5024121;28;20226;-77
2023/07/27 08:50:35;;;;;;;2.05;1.95;;;16.50;99.90;;;;;;5027655;28;20215;-77
2023/07/27 08:53:03;;;;;;;2.42;2.22;;;16.60;99.90;;;;;;5057066;28;20229;-77
2023/07/27 08:55:30;;;;;;;2.17;2.08;;;16.60;99.90;;;;;;5032675;28;20563;-77
2023/07/27 08:57:57;;;;;;;2.30;2.10;;;16.70;99.90;;;;;;5049492;28;20227;-77
2023/07/27 09:00:26;;;;;;;2.15;2.00;;;16.70;99.90;;;;;;5024252;28;20246;-77
2023/07/27 09:02:54;;;;;;;2.22;2.05;;;16.70;99.90;;;;;;5048913;28;20197;-77
2023/07/27 09:05:21;;;;;;;2.45;2.10;;;16.70;99.90;;;;;;5031632;28;20237;-77
2023/07/27 09:07:50;;;;;;;2.00;1.90;;;16.70;99.90;;;;;;5032483;28;20246;-77
2023/07/27 09:10:18;;;;;;;2.90;1.88;;;16.80;99.90;;;;;;5029289;28;20198;-77
2023/07/27 09:12:45;;;;;;;2.92;1.77;;;16.80;99.90;;;;;;5045650;28;20699;-77
2023/07/27 09:15:13;;;;;;;2.47;2.33;;;16.80;99.90;;;;;;5031852;28;20210;-77
2023/07/27 09:17:45;;;;;;;2.22;2.05;;;16.80;99.90;;;;;;5049212;28;20229;-77
2023/07/27 09:20:13;;;;;;;1.77;1.52;;;16.80;99.90;;;;;;5020629;28;20551;-77
2023/07/27 09:22:42;;;;;;;1.95;1.60;;;16.80;99.90;;;;;;5021314;28;20205;-77
2023/07/27 09:25:10;;;;;;;2.03;1.83;;;16.90;99.90;;;;;;5038668;28;20198;-77
2023/07/27 09:27:45;;;;;;;1.58;1.20;;;16.80;99.90;;;;;;5030339;28;20663;-77
2023/07/27 09:30:13;;;;;;;1.42;1.33;;;16.80;99.90;;;;;;5028995;28;20587;-77
2023/07/27 09:32:41;;;;;;;2.28;1.30;;;16.90;99.90;;;;;;5028828;28;20218;-77
2023/07/27 09:35:50;;;;;;;1.15;1.10;;;16.90;99.90;;;;;;5031507;28;20194;-77
2023/07/27 09:38:33;;;;;;;2.15;1.60;;;16.80;99.90;;;;;;5027909;28;20218;-77
2023/07/27 09:41:31;;;;;;;1.60;1.50;;;16.90;99.90;;;;;;5065277;28;20201;-78
2023/07/27 09:44:38;;;;;;;1.25;1.17;;;16.90;99.90;;;;;;5069330;28;20190;-77
2023/07/27 09:47:06;;;;;;;2.95;1.30;;;16.90;99.90;;;;;;5032143;28;20217;-77
2023/07/27 09:49:34;;;;;;;1.25;1.02;;;16.90;99.90;;;;;;5031524;28;20202;-77
2023/07/27 09:55:53;;;;;;;1.60;1.10;;;17.00;99.90;;;;;;5050344;28;20201;-77
2023/07/27 09:58:20;;;;;;;2.00;1.10;;;17.00;99.90;;;;;;5030862;28;20218;-77
2023/07/27 10:01:08;;;;;;;1.20;1.10;;;17.00;99.90;;;;;;5034751;28;20206;-77
2023/07/27 10:03:36;;;;;;;1.45;1.30;;;17.00;99.90;;;;;;5032796;28;20205;-77
2023/07/27 10:06:04;;;;;;;1.27;1.17;;;17.10;99.90;;;;;;5052353;28;20190;-77
2023/07/27 10:08:34;;;;;;;1.20;1.10;;;17.10;99.90;;;;;;5032465;28;20222;-77
2023/07/27 10:11:02;;;;;;;1.25;1.15;;;17.10;99.90;;;;;;5033330;28;20576;-77
2023/07/27 10:13:46;;;;;;;1.95;1.45;;;17.10;99.90;;;;;;5047215;28;20210;-77
2023/07/27 10:16:19;;;;;;;1.77;1.52;;;17.20;99.90;;;;;;5044404;28;20292;-77
2023/07/27 10:18:48;;;;;;;1.83;1.50;;;17.20;99.90;;;;;;5035056;28;20217;-77
2023/07/27 10:21:49;;;;;;;2.35;1.55;;;17.20;99.90;;;;;;5034571;28;20206;-77
2023/07/27 10:24:23;;;;;;;1.90;1.60;;;17.30;99.90;;;;;;5031288;28;20202;-77
2023/07/27 10:26:52;;;;;;;1.42;1.23;;;17.30;99.90;;;;;;5054546;28;20656;-77
2023/07/27 10:29:21;;;;;;;1.00;0.85;;;17.30;99.90;;;;;;5051057;28;20205;-77
2023/07/27 10:32:01;;;;;;;1.17;1.08;;;17.30;99.90;;;;;;5064471;28;20199;-77
2023/07/27 10:34:38;;;;;;;1.63;1.40;;;17.30;99.90;;;;;;5034915;28;20218;-77
2023/07/27 10:37:47;;;;;;;2.00;1.45;;;17.40;99.90;;;;;;5032443;28;20688;-77
2023/07/27 10:40:24;;;;;;;1.77;1.50;;;17.40;99.90;;;;;;5035836;28;20194;-77
2023/07/27 10:42:58;;;;;;;2.00;1.50;;;17.50;99.90;;;;;;5033108;28;20664;-77
2023/07/27 10:45:27;;;;;;;1.35;1.00;;;17.50;99.90;;;;;;5046672;28;20198;-77
2023/07/27 10:47:57;;;;;;;2.03;1.45;;;17.50;99.90;;;;;;5048941;28;20222;-77
2023/07/27 10:50:25;;;;;;;2.92;1.65;;;17.50;99.90;;;;;;5032556;28;20214;-77
2023/07/27 10:52:53;;;;;;;1.73;1.63;;;17.50;99.90;;;;;;5031713;28;20199;-77
2023/07/27 10:55:21;;;;;;;2.13;1.55;;;17.60;99.90;;;;;;5052596;28;20209;-77
2023/07/27 10:57:49;;;;;;;2.80;1.90;;;17.60;99.90;;;;;;5052240;28;20686;-77
2023/07/27 11:00:17;;;;;;;3.38;1.40;;;17.60;99.90;;;;;;5031556;28;20205;-77
2023/07/27 11:03:28;;;;;;;2.17;1.60;;;17.60;99.90;;;;;;5034174;28;20668;-77
2023/07/27 11:06:03;;;;;;;2.50;1.75;;;17.70;99.90;;;;;;5035839;28;20213;-78
2023/07/27 11:08:45;;;;;;;2.13;1.95;;;17.60;99.90;;;;;;5053628;28;20222;-78
2023/07/27 11:11:20;;;;;;;3.10;2.70;;;17.60;99.90;;;;;;5048636;28;20209;-78
2023/07/27 11:14:05;;;;;;;2.80;2.60;;;17.70;99.90;;;;;;5052624;28;20218;-77
2023/07/27 11:16:37;;;;;;;2.75;2.55;;;17.80;99.90;;;;;;5036106;28;20201;-77
2023/07/27 11:19:06;;;;;;;3.25;2.70;;;17.80;99.90;;;;;;5066927;28;20203;-77
2023/07/27 11:21:49;;;;;;;3.22;2.92;;;17.90;99.90;;;;;;5032672;28;20226;-77
2023/07/27 11:27:38;;;;;;;3.08;2.78;;;17.90;99.90;;;;;;5026440;28;20251;-77
2023/07/27 11:30:09;;;;;;;3.70;3.40;;;17.90;99.90;;;;;;5035647;28;20202;-77
2023/07/27 11:32:55;;;;;;;4.43;3.85;;;17.90;99.90;;;;;;5040202;28;20191;-77
2023/07/27 11:35:22;;;;;;;3.75;3.45;;;18.00;99.90;;;;;;5045124;28;20217;-77
2023/07/27 11:37:49;;;;;;;4.88;3.92;;;17.90;99.90;;;;;;5038514;28;20218;-77
2023/07/27 11:40:19;;;;;;;5.05;4.65;;;18.00;99.90;;;;;;5034561;28;20194;-77
2023/07/27 11:42:49;;;;;;;4.88;4.47;;;17.90;99.90;;;;;;5029256;28;20201;-77
2023/07/27 11:45:18;;;;;;;5.32;4.93;;;18.00;99.90;;;;;;5036374;28;20679;-77
2023/07/27 11:47:47;;;;;;;6.15;5.35;;;18.00;99.90;;;;;;5048906;28;20222;-77
2023/07/27 11:50:40;;;;;;;5.30;4.75;;;18.00;99.90;;;;;;5046579;28;20195;-77
2023/07/27 11:53:10;;;;;;;6.65;6.05;;;18.00;99.90;;;;;;5051110;28;20199;-77
2023/07/27 11:55:38;;;;;;;6.28;5.68;;;18.00;99.90;;;;;;5032313;28;20227;-77
2023/07/27 11:58:08;;;;;;;7.10;6.50;;;17.90;99.90;;;;;;5046318;28;20225;-77
2023/07/27 12:00:37;;;;;;;6.28;5.75;;;17.90;99.90;;;;;;5032118;28;20657;-77
2023/07/27 12:03:05;;;;;;;5.95;5.45;;;18.00;99.90;;;;;;5032487;28;20217;-77
2023/07/27 12:05:33;;;;;;;4.70;4.30;;;18.00;99.90;;;;;;5034707;28;20199;-77
2023/07/27 12:08:00;;;;;;;4.95;4.55;;;18.00;99.90;;;;;;5049184;28;20218;-77
2023/07/27 12:10:51;;;;;;;5.25;4.80;;;18.00;99.90;;;;;;5035823;28;20202;-77
2023/07/27 12:13:25;;;;;;;5.40;4.93;;;18.10;99.90;;;;;;5048065;28;20198;-77
2023/07/27 12:15:58;;;;;;;6.13;5.32;;;18.10;99.90;;;;;;5034498;28;20217;-77
2023/07/27 12:18:34;;;;;;;6.63;5.10;;;18.10;99.90;;;;;;5031293;28;20226;-77
2023/07/27 12:21:16;;;;;;;5.40;4.95;;;18.20;99.90;;;;;;5030264;28;20225;-77
2023/07/27 12:23:56;;;;;;;6.45;5.85;;;18.20;99.90;;;;;;5026255;28;20207;-77
2023/07/27 12:26:25;;;;;;;6.22;5.28;;;18.20;99.90;;;;;;5067129;28;20213;-77
2023/07/27 12:28:59;;;;;;;5.43;4.93;;;18.20;99.90;;;;;;5044268;28;20712;-77
2023/07/27 12:31:26;;;;;;;4.95;4.55;;;18.20;99.90;;;;;;5027171;28;20202;-77
2023/07/27 12:33:55;;;;;;;4.32;3.92;;;18.20;99.90;;;;;;5046973;28;20199;-77
2023/07/27 12:36:28;;;;;;;3.22;2.90;;;18.20;99.90;;;;;;5061212;28;20209;-77
2023/07/27 12:38:55;;;;;;;3.40;3.10;;;18.20;99.90;;;;;;5031405;28;20229;-77
2023/07/27 12:44:59;;;;;;;2.90;2.60;;;18.40;99.90;;;;;;5051264;28;20182;-77
2023/07/27 12:47:38;;;;;;;4.07;3.78;;;18.50;99.90;;;;;;5029175;28;20234;-77
2023/07/27 12:50:07;;;;;;;4.82;4.43;;;18.60;99.90;;;;;;5032828;28;20191;-77
2023/07/27 12:52:41;;;;;;;5.00;4.60;;;18.60;99.90;;;;;;5045064;28;20206;-77
2023/07/27 12:55:09;;;;;;;4.85;4.45;;;18.70;99.90;;;;;;5035450;28;20300;-77
2023/07/27 12:57:37;;;;;;;5.38;4.88;;;18.70;99.90;;;;;;5028536;28;20218;-77
2023/07/27 13:00:08;;;;;;;5.35;4.85;;;18.80;99.90;;;;;;5028016;28;20206;-77
2023/07/27 13:02:35;;;;;;;6.00;5.50;;;18.70;99.90;;;;;;5048023;28;20202;-77
2023/07/27 13:05:03;;;;;;;6.90;6.22;;;18.80;99.90;;;;;;5042342;28;20197;-78
2023/07/27 13:10:47;;;;;;;3.60;3.30;;;18.60;99.90;;;;;;5047524;28;20221;-78
2023/07/27 13:13:14;;;;;;;3.70;3.40;;;18.60;99.90;;;;;;5033424;28;20703;-77
2023/07/27 13:15:41;;;;;;;4.47;2.40;;;18.70;99.90;;;;;;5045654;28;20994;-77
2023/07/27 13:18:09;;;;;;;1.70;1.60;;;18.60;99.90;;;;;;5025718;28;20218;-77
2023/07/27 13:20:38;;;;;;;2.65;2.30;;;18.50;99.90;;;;;;5022097;28;20199;-77
2023/07/27 13:23:06;;;;;;;1.85;1.75;;;18.50;99.90;;;;;;5033114;28;20202;-77
2023/07/27 13:25:34;;;;;;;2.40;2.20;;;18.50;99.90;;;;;;5027089;28;20203;-77